sensor_id;sensor_type;location;lat;lon;timestamp;pressure;altitude;pressure_sealevel;temperature;humidity
54588;BME280;40484;50.198;19.576;2022-08-03T08:52:22;102132.09;;;27.42;44.26
54588;BME280;40484;50.198;19.576;2022-08-03T08:57:49;102135.95;;;27.29;44.96
54588;BME280;40484;50.198;19.576;2022-08-03T09:02:52;102137.96;;;27.18;45.18
54588;BME280;40484;50.198;19.576;2022-08-03T09:07:53;102144.74;;;27.28;46.17
54588;BME280;40484;50.198;19.576;2022-08-03T09:12:55;102143.27;;;27.18;45.05
54588;BME280;40484;50.198;19.576;2022-08-03T09:18:01;102136.40;;;26.87;45.82
54588;BME280;40484;50.198;19.576;2022-08-03T09:23:02;102136.70;;;27.12;45.23
54588;BME280;40484;50.198;19.576;2022-08-03T09:28:15;102132.52;;;27.28;44.13
54588;BME280;40484;50.198;19.576;2022-08-03T09:33:17;102128.68;;;27.37;44.32
54588;BME280;40484;50.198;19.576;2022-08-03T09:38:23;102136.77;;;27.71;44.56
54588;BME280;40484;50.198;19.576;2022-08-03T09:43:27;102136.41;;;27.88;45.47
54588;BME280;40484;50.198;19.576;2022-08-03T09:48:30;102133.59;;;27.96;44.38
54588;BME280;40484;50.198;19.576;2022-08-03T09:53:40;102133.67;;;28.11;45.50
54588;BME280;40484;50.198;19.576;2022-08-03T09:58:43;102122.85;;;28.02;45.63
54588;BME280;40484;50.198;19.576;2022-08-03T10:03:39;102130.23;;;27.91;45.31
54588;BME280;40484;50.198;19.576;2022-08-03T10:08:40;102126.59;;;27.99;44.31
54588;BME280;40484;50.198;19.576;2022-08-03T10:13:42;102119.88;;;28.21;42.08
54588;BME280;40484;50.198;19.576;2022-08-03T10:19:12;102121.88;;;28.48;42.55
54588;BME280;40484;50.198;19.576;2022-08-03T10:24:17;102119.81;;;28.59;42.39
54588;BME280;40484;50.198;19.576;2022-08-03T10:29:23;102119.50;;;28.84;40.77
54588;BME280;40484;50.198;19.576;2022-08-03T10:34:26;102106.08;;;28.94;39.67
54588;BME280;40484;50.198;19.576;2022-08-03T10:39:30;102100.63;;;29.07;39.68
54588;BME280;40484;50.198;19.576;2022-08-03T10:44:36;102108.73;;;29.04;39.80
54588;BME280;40484;50.198;19.576;2022-08-03T10:49:36;102105.26;;;28.93;40.43
54588;BME280;40484;50.198;19.576;2022-08-03T10:54:42;102098.20;;;29.01;41.07
54588;BME280;40484;50.198;19.576;2022-08-03T11:00:24;102100.50;;;28.94;41.91
54588;BME280;40484;50.198;19.576;2022-08-03T11:05:27;102100.35;;;28.93;40.75
54588;BME280;40484;50.198;19.576;2022-08-03T11:10:29;102102.03;;;28.82;40.19
54588;BME280;40484;50.198;19.576;2022-08-03T11:16:49;102096.30;;;28.74;40.68
54588;BME280;40484;50.198;19.576;2022-08-03T11:21:54;102089.25;;;28.62;40.80
54588;BME280;40484;50.198;19.576;2022-08-03T11:27:15;102082.38;;;28.66;43.34
54588;BME280;40484;50.198;19.576;2022-08-03T11:43:00;102084.95;;;29.00;40.92
54588;BME280;40484;50.198;19.576;2022-08-03T11:48:12;102073.14;;;29.01;42.10
54588;BME280;40484;50.198;19.576;2022-08-03T11:53:06;102069.98;;;29.08;41.52
54588;BME280;40484;50.198;19.576;2022-08-03T11:58:07;102062.19;;;29.13;36.71
54588;BME280;40484;50.198;19.576;2022-08-03T12:03:36;102061.34;;;29.42;38.23
54588;BME280;40484;50.198;19.576;2022-08-03T12:08:38;102069.14;;;29.52;39.11
54588;BME280;40484;50.198;19.576;2022-08-03T12:13:48;102062.96;;;29.51;37.71
54588;BME280;40484;50.198;19.576;2022-08-03T12:18:55;102062.17;;;29.43;40.98
54588;BME280;40484;50.198;19.576;2022-08-03T12:24:02;102062.07;;;29.37;41.96
54588;BME280;40484;50.198;19.576;2022-08-03T12:29:00;102053.42;;;29.85;37.97
54588;BME280;40484;50.198;19.576;2022-08-03T12:34:03;102043.61;;;30.56;36.35
54588;BME280;40484;50.198;19.576;2022-08-03T12:39:07;102043.69;;;30.98;33.04
54588;BME280;40484;50.198;19.576;2022-08-03T12:44:09;102034.28;;;31.45;33.64
54588;BME280;40484;50.198;19.576;2022-08-03T12:49:14;102031.27;;;31.85;31.73
54588;BME280;40484;50.198;19.576;2022-08-03T12:54:20;102027.14;;;32.01;30.13
54588;BME280;40484;50.198;19.576;2022-08-03T12:59:26;102025.66;;;31.64;28.79
54588;BME280;40484;50.198;19.576;2022-08-03T13:04:30;102026.13;;;31.19;28.33
54588;BME280;40484;50.198;19.576;2022-08-03T13:09:48;102020.55;;;31.54;30.15
54588;BME280;40484;50.198;19.576;2022-08-03T13:15:14;102023.84;;;31.94;27.99
54588;BME280;40484;50.198;19.576;2022-08-03T13:20:16;102017.56;;;32.68;28.90
54588;BME280;40484;50.198;19.576;2022-08-03T13:25:18;102016.96;;;33.02;27.08
54588;BME280;40484;50.198;19.576;2022-08-03T13:30:20;102022.14;;;33.38;27.92
54588;BME280;40484;50.198;19.576;2022-08-03T13:35:22;102021.74;;;33.47;26.90
54588;BME280;40484;50.198;19.576;2022-08-03T13:40:23;102008.85;;;33.43;25.25
54588;BME280;40484;50.198;19.576;2022-08-03T13:45:25;102014.75;;;33.70;26.65
54588;BME280;40484;50.198;19.576;2022-08-03T13:50:27;102017.19;;;33.75;26.62
54588;BME280;40484;50.198;19.576;2022-08-03T13:55:30;102014.86;;;33.80;26.67
54588;BME280;40484;50.198;19.576;2022-08-03T14:00:33;102016.55;;;33.67;26.04
54588;BME280;40484;50.198;19.576;2022-08-03T14:05:35;102013.25;;;33.62;26.07
54588;BME280;40484;50.198;19.576;2022-08-03T14:10:41;102014.58;;;33.75;26.07
54588;BME280;40484;50.198;19.576;2022-08-03T14:15:41;102009.70;;;33.52;27.25
54588;BME280;40484;50.198;19.576;2022-08-03T14:20:43;102004.77;;;33.15;27.08
54588;BME280;40484;50.198;19.576;2022-08-03T14:25:45;102002.83;;;33.32;26.34
54588;BME280;40484;50.198;19.576;2022-08-03T14:30:47;101997.88;;;33.60;26.49
54588;BME280;40484;50.198;19.576;2022-08-03T14:35:49;102002.07;;;33.92;25.34
54588;BME280;40484;50.198;19.576;2022-08-03T14:40:50;101994.46;;;33.60;26.39
54588;BME280;40484;50.198;19.576;2022-08-03T14:45:53;101994.66;;;33.84;26.18
54588;BME280;40484;50.198;19.576;2022-08-03T14:50:54;101986.26;;;33.98;25.57
54588;BME280;40484;50.198;19.576;2022-08-03T14:56:22;101981.66;;;34.20;25.10
54588;BME280;40484;50.198;19.576;2022-08-03T15:01:23;101983.83;;;34.25;25.01
54588;BME280;40484;50.198;19.576;2022-08-03T15:06:25;101984.66;;;34.26;25.27
54588;BME280;40484;50.198;19.576;2022-08-03T15:11:27;101979.91;;;34.39;24.56
54588;BME280;40484;50.198;19.576;2022-08-03T15:16:29;101972.09;;;34.37;24.64
54588;BME280;40484;50.198;19.576;2022-08-03T15:21:30;101968.31;;;34.46;25.02
54588;BME280;40484;50.198;19.576;2022-08-03T15:26:32;101968.54;;;34.56;24.25
54588;BME280;40484;50.198;19.576;2022-08-03T15:31:33;101965.53;;;34.56;24.07
54588;BME280;40484;50.198;19.576;2022-08-03T15:36:35;101962.57;;;34.45;25.28
54588;BME280;40484;50.198;19.576;2022-08-03T15:41:37;101963.39;;;34.43;25.13
54588;BME280;40484;50.198;19.576;2022-08-03T15:46:38;101963.80;;;34.43;23.73
54588;BME280;40484;50.198;19.576;2022-08-03T15:51:40;101960.15;;;34.61;25.02
54588;BME280;40484;50.198;19.576;2022-08-03T15:56:41;101959.66;;;34.72;25.02
54588;BME280;40484;50.198;19.576;2022-08-03T16:01:46;101954.83;;;34.76;24.44
54588;BME280;40484;50.198;19.576;2022-08-03T16:06:48;101948.66;;;34.75;25.19
54588;BME280;40484;50.198;19.576;2022-08-03T16:11:50;101945.65;;;34.72;25.90
54588;BME280;40484;50.198;19.576;2022-08-03T16:16:51;101942.11;;;34.65;25.82
54588;BME280;40484;50.198;19.576;2022-08-03T16:21:53;101935.44;;;34.78;25.46
54588;BME280;40484;50.198;19.576;2022-08-03T16:26:55;101939.02;;;34.53;24.34
54588;BME280;40484;50.198;19.576;2022-08-03T16:31:57;101930.83;;;34.48;25.28
54588;BME280;40484;50.198;19.576;2022-08-03T16:36:58;101931.22;;;34.54;24.86
54588;BME280;40484;50.198;19.576;2022-08-03T16:42:26;101930.15;;;34.69;25.00
54588;BME280;40484;50.198;19.576;2022-08-03T16:47:27;101932.63;;;34.68;25.94
54588;BME280;40484;50.198;19.576;2022-08-03T16:52:29;101931.19;;;34.33;26.54
54588;BME280;40484;50.198;19.576;2022-08-03T16:57:31;101933.49;;;33.72;26.87
54588;BME280;40484;50.198;19.576;2022-08-03T17:02:32;101938.24;;;33.45;26.90
54588;BME280;40484;50.198;19.576;2022-08-03T17:07:34;101932.09;;;33.39;27.26
54588;BME280;40484;50.198;19.576;2022-08-03T17:12:36;101943.85;;;33.51;27.25
54588;BME280;40484;50.198;19.576;2022-08-03T17:17:41;101944.66;;;33.54;27.20
54588;BME280;40484;50.198;19.576;2022-08-03T17:22:51;101946.72;;;33.44;27.92
54588;BME280;40484;50.198;19.576;2022-08-03T17:27:51;101945.42;;;33.14;28.14
54588;BME280;40484;50.198;19.576;2022-08-03T17:32:53;101952.22;;;32.72;29.13
54588;BME280;40484;50.198;19.576;2022-08-03T17:37:54;101950.28;;;32.09;29.77
54588;BME280;40484;50.198;19.576;2022-08-03T17:42:57;101961.95;;;31.71;30.60
54588;BME280;40484;50.198;19.576;2022-08-03T17:47:59;101964.28;;;31.44;31.59
54588;BME280;40484;50.198;19.576;2022-08-03T17:53:08;101973.70;;;31.26;32.35
54588;BME280;40484;50.198;19.576;2022-08-03T17:58:16;101982.73;;;30.94;33.36
54588;BME280;40484;50.198;19.576;2022-08-03T18:03:35;101983.02;;;30.57;33.89
54588;BME280;40484;50.198;19.576;2022-08-03T18:09:00;101986.75;;;30.36;34.10
54588;BME280;40484;50.198;19.576;2022-08-03T18:14:15;101987.30;;;30.17;34.53
54588;BME280;40484;50.198;19.576;2022-08-03T18:19:18;101995.58;;;30.02;35.05
54588;BME280;40484;50.198;19.576;2022-08-03T18:24:19;101995.72;;;29.82;35.75
54588;BME280;40484;50.198;19.576;2022-08-03T18:29:22;102004.07;;;29.58;36.30
54588;BME280;40484;50.198;19.576;2022-08-03T18:34:24;102005.24;;;29.38;36.56
54588;BME280;40484;50.198;19.576;2022-08-03T18:39:27;102013.46;;;29.15;36.92
54588;BME280;40484;50.198;19.576;2022-08-03T18:44:29;102011.34;;;28.96;37.40
54588;BME280;40484;50.198;19.576;2022-08-03T18:55:08;102020.27;;;28.57;38.19
54588;BME280;40484;50.198;19.576;2022-08-03T19:00:08;102027.04;;;28.42;38.56
54588;BME280;40484;50.198;19.576;2022-08-03T19:05:14;102031.84;;;28.25;38.77
54588;BME280;40484;50.198;19.576;2022-08-03T19:10:41;102033.48;;;28.19;38.80
54588;BME280;40484;50.198;19.576;2022-08-03T19:15:46;102032.49;;;28.05;38.97
54588;BME280;40484;50.198;19.576;2022-08-03T19:20:50;102038.25;;;27.89;39.15
54588;BME280;40484;50.198;19.576;2022-08-03T19:25:52;102045.39;;;27.58;39.45
54588;BME280;40484;50.198;19.576;2022-08-03T19:30:55;102053.92;;;27.30;39.86
54588;BME280;40484;50.198;19.576;2022-08-03T19:35:58;102059.86;;;27.13;39.97
54588;BME280;40484;50.198;19.576;2022-08-03T19:41:01;102058.05;;;26.97;39.93
54588;BME280;40484;50.198;19.576;2022-08-03T19:46:06;102054.76;;;26.90;39.92
54588;BME280;40484;50.198;19.576;2022-08-03T19:51:07;102054.28;;;26.92;40.02
54588;BME280;40484;50.198;19.576;2022-08-03T19:56:09;102061.34;;;26.92;39.96
54588;BME280;40484;50.198;19.576;2022-08-03T20:01:13;102058.52;;;26.84;40.11
54588;BME280;40484;50.198;19.576;2022-08-03T20:06:16;102056.30;;;26.77;40.26
54588;BME280;40484;50.198;19.576;2022-08-03T20:11:19;102059.48;;;26.64;40.47
54588;BME280;40484;50.198;19.576;2022-08-03T20:16:20;102047.55;;;26.55;40.88
54588;BME280;40484;50.198;19.576;2022-08-03T20:21:23;102045.55;;;26.52;41.01
54588;BME280;40484;50.198;19.576;2022-08-03T20:26:27;102037.43;;;26.52;41.03
54588;BME280;40484;50.198;19.576;2022-08-03T20:31:28;102042.03;;;26.44;41.16
54588;BME280;40484;50.198;19.576;2022-08-03T20:36:30;102036.34;;;26.29;41.42
54588;BME280;40484;50.198;19.576;2022-08-03T20:41:56;102037.34;;;26.26;41.63
54588;BME280;40484;50.198;19.576;2022-08-03T20:46:59;102038.58;;;26.27;41.65
54588;BME280;40484;50.198;19.576;2022-08-03T20:52:02;102034.59;;;26.26;41.74
54588;BME280;40484;50.198;19.576;2022-08-03T20:57:05;102037.07;;;26.22;41.75
54588;BME280;40484;50.198;19.576;2022-08-03T21:02:07;102042.45;;;26.17;41.77
54588;BME280;40484;50.198;19.576;2022-08-03T21:07:12;102038.15;;;26.13;41.88
54588;BME280;40484;50.198;19.576;2022-08-03T21:12:14;102049.43;;;26.09;42.08
54588;BME280;40484;50.198;19.576;2022-08-03T21:17:19;102041.79;;;26.13;42.00
54588;BME280;40484;50.198;19.576;2022-08-03T21:22:21;102044.30;;;26.14;41.60
54588;BME280;40484;50.198;19.576;2022-08-03T21:27:23;102055.05;;;26.16;41.44
54588;BME280;40484;50.198;19.576;2022-08-03T21:32:25;102057.11;;;26.04;41.50
